Upstream stations:
Downstream station:
SHEF ID: BFFO2 Cimarron River near Buffalo, OK
STATION TYPE:
Regulating: Stage = 6.00, Flow = 750
PRECIP STAGE RIV-FLOW BAT-LOAD
in ft cfs volt
Ccp-Rev Ccp-Rev Ccp-Rev Ccp-Rev
(US/Central)
01/10 00:00 0.00 3.25 13 12.73
01/10 01:00 0.00 3.30 16 12.65
01/10 02:00 0.00 3.26 13 12.65
01/10 03:00 0.00 3.28 15 12.65
01/10 04:00 0.00 3.28 15 12.57
01/10 05:00 0.00 3.28 15 12.57
01/10 06:00 0.00 3.30 16 12.57
01/10 07:00 0.00 3.30 16 12.49
01/10 08:00 0.00 3.27 14 12.49
01/10 09:00 0.00 3.23 11 13.21
01/10 10:00 0.00 3.21 10 13.53
01/10 11:00 0.00 3.17 8 13.60
01/10 12:00 0.00 3.18 9 13.60
01/10 13:00 0.00 3.15 7 13.60
01/10 14:00 0.00 3.14 7 13.53
01/10 15:00 0.00 3.21 10 13.53
01/10 16:00 0.00 3.26 13 13.44
01/10 17:00 0.00 3.26 13 13.68
01/10 18:00 0.00 3.20 10 13.29
01/10 19:00 0.00 3.21 10 12.97
01/10 20:00 0.00 3.19 9 12.81
01/10 21:00 0.00 3.23 11 12.81
01/10 22:00 0.00 3.25 13 12.81
01/10 23:00 0.00 3.28 15 12.73